METAR for South England South Wales and Channel Islands - 19 Feb 2018 - 0158 UTC - RocketRoute WX - rrwx.com
EGJA   EGUB 190050Z AUTO 17004KT 3900 // BKN007/// BKN019/// 06/06 Q1018 EGKB   EGDM 190050Z AUTO 20002KT 0100 -RA VV/// 06/06 Q1018 EGHH   EGGD 190150Z AUTO 24006KT 0100 R27/0300 FG VV/// 07/07 Q1018 EGVN 190050Z 21002KT 3500 -RADZ BKN004 06/06 Q1018 TEMPO 2000 DZ EGFF 190150Z AUTO 27007KT 0200 R30/0750 FG VV/// 07/07 Q1018 EGTC   EGDR 190050Z AUTO 30008KT 2900 // OVC001/// 10/10 Q1020 EGTE   EGLF   EGTG   EGBJ   EGJB   EGJJ 190150Z AUTO 29004KT 0150 0100 R26///// FG OVC002/// 08/08 Q1019 EGGW 190150Z AUTO 21006KT 3100 DZ OVC003 06/05 Q1018 EGLC 190150Z AUTO 23004KT 210V280 9000 BKN008 OVC011 08/06 Q1019 EGKK 190150Z 25001KT 0700 R26L/P1500 FG BKN002 07/06 Q1018 EGLL 190150Z AUTO 20003KT 1200 R27R/P1500 -RADZ BKN002 OVC007 06/06 Q1019 TEMPO 4000 EGSS 190150Z AUTO 18004KT 8000 OVC007 06/05 Q1018 EGMD 190150Z AUTO 21008KT 9999 SCT006/// BKN009/// OVC014/// 08/07 Q1019 EGDL   EGMH   EGVP 190050Z AUTO 20001KT 0350 // OVC002/// 06/06 Q1019 EGHQ   EGWU 190050Z AUTO 21003KT 3100 // OVC003/// 07/06 Q1019 EGHK   EGHE   EGKA   EGHI   EGMC 190050Z 17003KT 9999 FEW008 BKN011 06/04 Q1019 EGDX 190050Z AUTO 27005KT 0550 -RA OVC002/// 08/08 Q1018 EGDY 190050Z AUTO 19001KT 3600 -RA BKN006/// BKN009/// 07/07 Q1019

RocketRoute WX - rrwx.com weather for pilots